createdAt,value
2022-11-05T00:00:19.839Z,7.74
2022-11-05T00:03:04.942Z,7.78
2022-11-05T00:05:51.652Z,7.86
2022-11-05T00:08:36.834Z,7.75
2022-11-05T00:11:03.324Z,7.79
2022-11-05T00:13:48.521Z,7.86
2022-11-05T00:16:33.942Z,7.76
2022-11-05T00:19:06.777Z,7.83
2022-11-05T00:21:52.217Z,7.86
2022-11-05T00:24:37.658Z,7.77
2022-11-05T00:27:04.255Z,7.85
2022-11-05T00:29:30.813Z,7.88
2022-11-05T00:31:57.262Z,7.79
2022-11-05T00:34:23.757Z,7.86
2022-11-05T00:36:50.318Z,7.90
2022-11-05T00:39:16.896Z,7.79
2022-11-05T00:41:43.646Z,7.84
2022-11-05T00:44:28.583Z,7.93
2022-11-05T00:47:15.026Z,7.81
2022-11-05T00:49:41.601Z,7.85
2022-11-05T00:52:27.139Z,7.93
2022-11-05T00:54:53.602Z,7.82
2022-11-05T00:57:20.121Z,7.91
2022-11-05T00:59:46.626Z,7.88
2022-11-05T01:02:13.295Z,7.79
2022-11-05T01:04:39.865Z,7.87
2022-11-05T01:07:09.822Z,7.91
2022-11-05T01:09:36.279Z,7.82
2022-11-05T01:12:04.658Z,7.92
2022-11-05T01:14:31.506Z,7.90
2022-11-05T01:16:57.994Z,7.85
2022-11-05T01:19:24.609Z,7.88
2022-11-05T01:21:51.029Z,7.94
2022-11-05T01:24:17.418Z,7.84
2022-11-05T01:26:44.012Z,7.86
2022-11-05T01:29:11.094Z,7.97
2022-11-05T01:31:37.606Z,7.88
2022-11-05T01:34:04.131Z,7.84
2022-11-05T01:36:30.616Z,7.94
2022-11-05T01:38:57.209Z,7.87
2022-11-05T01:41:23.827Z,7.82
2022-11-05T01:43:52.333Z,7.92
2022-11-05T01:46:39.921Z,7.86
2022-11-05T01:49:18.671Z,7.77
2022-11-05T01:51:45.809Z,7.89
2022-11-05T01:54:14.587Z,7.82
2022-11-05T01:56:43.982Z,7.80
2022-11-05T01:59:12.586Z,7.92
2022-11-05T02:01:39.382Z,7.83
2022-11-05T02:04:10.344Z,7.77
2022-11-05T02:06:39.278Z,7.88
2022-11-05T02:09:13.312Z,7.81
2022-11-05T02:11:42.273Z,7.77
2022-11-05T02:14:08.734Z,7.91
2022-11-05T02:16:48.001Z,7.82
2022-11-05T02:19:14.608Z,7.78
2022-11-05T02:21:48.157Z,7.89
2022-11-05T02:24:26.565Z,7.77
2022-11-05T02:27:02.613Z,7.73
2022-11-05T02:29:29.139Z,7.81
2022-11-05T02:32:15.345Z,7.68
2022-11-05T02:35:05.591Z,7.67
2022-11-05T02:37:38.070Z,7.73
2022-11-05T02:40:05.120Z,7.59
2022-11-05T02:42:40.286Z,7.62
2022-11-05T02:45:24.929Z,7.68
2022-11-05T02:47:57.196Z,7.56
2022-11-05T02:50:27.018Z,7.58
2022-11-05T02:52:59.395Z,7.66
2022-11-05T02:55:32.892Z,7.55
2022-11-05T02:58:02.720Z,7.60
2022-11-05T03:00:44.279Z,7.62
2022-11-05T03:03:22.606Z,7.49
2022-11-05T03:05:52.470Z,7.52
2022-11-05T03:08:27.943Z,7.55
2022-11-05T03:11:14.661Z,7.44
2022-11-05T03:13:41.148Z,7.47
2022-11-05T03:16:13.317Z,7.53
2022-11-05T03:18:45.422Z,7.42
2022-11-05T03:21:11.851Z,7.39
2022-11-05T03:23:58.610Z,7.47
2022-11-05T03:26:38.289Z,7.37
2022-11-05T03:29:16.449Z,7.34
2022-11-05T03:31:45.691Z,7.48
2022-11-05T03:34:13.070Z,7.36
2022-11-05T03:36:41.861Z,7.34
2022-11-05T03:39:10.910Z,7.45
2022-11-05T03:41:41.474Z,7.35
2022-11-05T03:44:09.207Z,7.40
2022-11-05T03:46:38.919Z,7.45
2022-11-05T03:49:08.578Z,7.33
2022-11-05T03:51:53.726Z,7.43
2022-11-05T03:54:20.342Z,7.35
2022-11-05T03:56:52.338Z,7.39
2022-11-05T03:59:20.176Z,7.43
2022-11-05T04:01:48.049Z,7.33
2022-11-05T04:04:14.621Z,7.28
2022-11-05T04:07:01.270Z,7.41
2022-11-05T04:09:48.503Z,7.34
2022-11-05T04:12:33.598Z,7.33
2022-11-05T04:15:00.151Z,7.46
2022-11-05T04:17:26.560Z,7.37
2022-11-05T04:20:11.661Z,7.32
2022-11-05T04:22:56.899Z,7.47
2022-11-05T04:25:23.390Z,7.35
2022-11-05T04:27:50.058Z,7.31
2022-11-05T04:30:20.909Z,7.43
2022-11-05T04:32:59.724Z,7.36
2022-11-05T04:35:27.133Z,7.28
2022-11-05T04:37:53.931Z,7.42
2022-11-05T04:40:20.502Z,7.36
2022-11-05T04:42:46.971Z,7.29
2022-11-05T04:45:13.412Z,7.34
2022-11-05T04:47:39.883Z,7.41
2022-11-05T04:50:06.699Z,7.28
2022-11-05T04:52:33.181Z,7.31
2022-11-05T04:54:59.636Z,7.42
2022-11-05T04:57:26.145Z,7.33
2022-11-05T04:59:53.927Z,7.28
2022-11-05T05:02:20.630Z,7.40
2022-11-05T05:04:47.134Z,7.37
2022-11-05T05:07:14.491Z,7.28
2022-11-05T05:09:40.954Z,7.34
2022-11-05T05:12:08.107Z,7.37
2022-11-05T05:14:34.618Z,7.27
2022-11-05T05:17:01.083Z,7.28
2022-11-05T05:19:27.604Z,7.37
2022-11-05T05:21:53.993Z,7.24
2022-11-05T05:24:21.317Z,7.22
2022-11-05T05:26:51.248Z,7.34
2022-11-05T05:29:19.972Z,7.27
2022-11-05T05:31:46.534Z,7.22
2022-11-05T05:34:13.929Z,7.31
2022-11-05T05:36:40.349Z,7.33
2022-11-05T05:39:08.142Z,7.22
2022-11-05T05:41:34.675Z,7.23
2022-11-05T05:44:01.185Z,7.34
2022-11-05T05:46:27.677Z,7.22
2022-11-05T05:48:54.154Z,7.22
2022-11-05T05:51:20.682Z,7.34
2022-11-05T05:53:47.187Z,7.23
2022-11-05T05:56:15.258Z,7.20
2022-11-05T05:58:41.929Z,7.26
2022-11-05T06:01:14.146Z,7.28
2022-11-05T06:03:43.804Z,7.21
2022-11-05T06:06:15.923Z,7.30
2022-11-05T06:08:42.418Z,7.31
2022-11-05T06:11:09.035Z,7.22
2022-11-05T06:13:36.230Z,7.34
2022-11-05T06:16:07.091Z,7.32
2022-11-05T06:18:34.160Z,7.23
2022-11-05T06:21:01.133Z,7.30
2022-11-05T06:23:27.785Z,7.35
2022-11-05T06:25:54.181Z,7.28
2022-11-05T06:28:22.643Z,7.24
2022-11-05T06:30:52.123Z,7.37
2022-11-05T06:33:18.599Z,7.30
2022-11-05T06:35:45.120Z,7.26
2022-11-05T06:38:11.733Z,7.40
2022-11-05T06:40:38.322Z,7.37
2022-11-05T06:43:04.868Z,7.30
2022-11-05T06:45:31.359Z,7.38
2022-11-05T06:47:58.444Z,7.39
2022-11-05T06:50:25.935Z,7.32
2022-11-05T06:52:55.239Z,7.36
2022-11-05T06:55:21.657Z,7.44
2022-11-05T06:57:48.192Z,7.35
2022-11-05T07:00:15.153Z,7.36
2022-11-05T07:02:41.623Z,7.45
2022-11-05T07:05:11.338Z,7.36
2022-11-05T07:07:40.562Z,7.38
2022-11-05T07:10:08.075Z,7.49
2022-11-05T07:12:36.590Z,7.40
2022-11-05T07:15:06.190Z,7.43
2022-11-05T07:17:34.886Z,7.47
2022-11-05T07:20:01.353Z,7.39
2022-11-05T07:22:27.844Z,7.38
2022-11-05T07:24:54.327Z,7.48
2022-11-05T07:27:20.819Z,7.40
2022-11-05T07:29:47.345Z,7.45
2022-11-05T07:32:15.645Z,7.51
2022-11-05T07:34:42.127Z,7.40
2022-11-05T07:37:08.906Z,7.51
2022-11-05T07:39:35.422Z,7.46
2022-11-05T07:42:01.903Z,7.40
2022-11-05T07:44:28.710Z,7.47
2022-11-05T07:46:55.311Z,7.49
2022-11-05T07:49:23.825Z,7.43
2022-11-05T07:51:50.282Z,7.44
2022-11-05T07:54:16.768Z,7.53
2022-11-05T07:56:43.375Z,7.44
2022-11-05T07:59:12.231Z,7.44
2022-11-05T08:01:39.047Z,7.54
2022-11-05T08:04:05.606Z,7.47
2022-11-05T08:06:33.137Z,7.44
2022-11-05T08:09:00.009Z,7.53
2022-11-05T08:11:26.478Z,7.50
2022-11-05T08:13:53.002Z,7.44
2022-11-05T08:16:22.247Z,7.53
2022-11-05T08:18:49.678Z,7.53
2022-11-05T08:21:16.227Z,7.48
2022-11-05T08:23:43.097Z,7.49
2022-11-05T08:26:10.034Z,7.61
2022-11-05T08:28:36.453Z,7.51
2022-11-05T08:31:03.092Z,7.51
2022-11-05T08:33:31.447Z,7.63
2022-11-05T08:36:01.467Z,7.54
2022-11-05T08:38:27.983Z,7.51
2022-11-05T08:40:56.436Z,7.62
2022-11-05T08:43:23.450Z,7.51
2022-11-05T08:45:50.281Z,7.50
2022-11-05T08:48:17.969Z,7.60
2022-11-05T08:50:45.634Z,7.52
2022-11-05T08:53:12.496Z,7.54
2022-11-05T08:55:39.276Z,7.63
2022-11-05T08:58:10.745Z,7.53
2022-11-05T09:00:37.719Z,7.50
2022-11-05T09:03:05.326Z,7.58
2022-11-05T09:05:37.659Z,7.55
2022-11-05T09:08:09.063Z,7.51
2022-11-05T09:10:35.775Z,7.64
2022-11-05T09:13:02.690Z,7.59
2022-11-05T09:15:29.286Z,7.55
2022-11-05T09:17:55.809Z,7.68
2022-11-05T09:20:22.718Z,7.65
2022-11-05T09:22:49.378Z,7.60
2022-11-05T09:25:16.082Z,7.71
2022-11-05T09:27:42.823Z,7.62
2022-11-05T09:30:09.964Z,7.56
2022-11-05T09:32:36.527Z,7.66
2022-11-05T09:35:03.140Z,7.68
2022-11-05T09:37:29.616Z,7.59
2022-11-05T09:39:58.530Z,7.65
2022-11-05T09:42:29.798Z,7.63
2022-11-05T09:45:04.105Z,7.57
2022-11-05T09:47:36.414Z,7.63
2022-11-05T09:50:06.938Z,7.57
2022-11-05T09:52:33.663Z,7.54
2022-11-05T09:55:02.550Z,7.63
2022-11-05T09:57:33.080Z,7.55
2022-11-05T10:00:02.297Z,7.50
2022-11-05T10:02:32.452Z,7.60
2022-11-05T10:05:09.173Z,7.54
2022-11-05T10:07:42.181Z,7.48
2022-11-05T10:10:19.005Z,7.62
2022-11-05T10:12:48.399Z,7.53
2022-11-05T10:15:37.366Z,7.46
2022-11-05T10:18:17.590Z,7.55
2022-11-05T10:20:45.142Z,7.51
2022-11-05T10:23:14.478Z,7.49
2022-11-05T10:25:42.830Z,7.60
2022-11-05T10:28:12.371Z,7.50
2022-11-05T10:30:39.202Z,7.42
2022-11-05T10:33:07.105Z,7.56
2022-11-05T10:35:35.506Z,7.49
2022-11-05T10:38:02.601Z,7.44
2022-11-05T10:40:41.290Z,7.56
2022-11-05T10:43:13.828Z,7.51
2022-11-05T10:45:47.302Z,7.46
2022-11-05T10:48:26.629Z,7.53
2022-11-05T10:50:53.430Z,7.49
2022-11-05T10:53:41.735Z,7.49
2022-11-05T10:56:27.037Z,7.56
2022-11-05T10:58:58.487Z,7.46
2022-11-05T11:01:25.495Z,7.43
2022-11-05T11:04:12.660Z,7.53
2022-11-05T11:06:43.999Z,7.44
2022-11-05T11:09:21.385Z,7.41
2022-11-05T11:11:54.236Z,7.53
2022-11-05T11:14:24.507Z,7.41
2022-11-05T11:16:53.527Z,7.46
2022-11-05T11:19:28.026Z,7.49
2022-11-05T11:22:15.068Z,7.41
2022-11-05T11:24:43.710Z,7.50
2022-11-05T11:27:13.343Z,7.43
2022-11-05T11:29:45.132Z,7.36
2022-11-05T11:32:17.110Z,7.49
2022-11-05T11:34:45.121Z,7.40
2022-11-05T11:37:19.359Z,7.35
2022-11-05T11:39:51.244Z,7.46
2022-11-05T11:42:23.242Z,7.43
2022-11-05T11:44:50.666Z,7.39
2022-11-05T11:47:19.011Z,7.49
2022-11-05T11:49:47.852Z,7.35
2022-11-05T11:52:15.670Z,7.41
2022-11-05T11:54:42.853Z,7.45
2022-11-05T11:57:26.397Z,7.33
2022-11-05T12:00:08.232Z,7.46
2022-11-05T12:02:47.442Z,7.35
2022-11-05T12:05:22.565Z,7.35
2022-11-05T12:08:03.907Z,7.44
2022-11-05T12:10:48.690Z,7.28
2022-11-05T12:13:21.189Z,7.37
2022-11-05T12:15:55.771Z,7.32
2022-11-05T12:18:22.335Z,7.23
2022-11-05T12:21:05.688Z,7.37
2022-11-05T12:23:46.607Z,7.25
2022-11-05T12:26:32.299Z,7.31
2022-11-05T12:29:23.852Z,7.31
2022-11-05T12:31:53.506Z,7.24
2022-11-05T12:34:20.125Z,7.37
2022-11-05T12:37:05.186Z,7.21
2022-11-05T12:39:50.857Z,7.29
2022-11-05T12:42:29.699Z,7.30
2022-11-05T12:45:25.653Z,7.20
2022-11-05T12:47:59.122Z,7.32
2022-11-05T12:50:28.431Z,7.21
2022-11-05T12:53:14.451Z,7.29
2022-11-05T12:55:48.039Z,7.28
2022-11-05T12:58:28.995Z,7.22
2022-11-05T13:01:04.275Z,7.35
2022-11-05T13:03:30.979Z,7.22
2022-11-05T13:06:05.704Z,7.18
2022-11-05T13:08:43.054Z,7.30
2022-11-05T13:11:17.879Z,7.18
2022-11-05T13:14:03.281Z,7.17
2022-11-05T13:16:33.845Z,7.25
2022-11-05T13:19:09.316Z,7.13
2022-11-05T13:21:37.324Z,7.12
2022-11-05T13:24:14.722Z,7.19
2022-11-05T13:26:51.702Z,7.08
2022-11-05T13:29:21.646Z,7.13
2022-11-05T13:32:05.264Z,7.20
2022-11-05T13:34:37.376Z,7.05
2022-11-05T13:37:24.413Z,7.10
2022-11-05T13:39:54.362Z,7.17
2022-11-05T13:42:33.536Z,7.04
2022-11-05T13:45:21.342Z,7.10
2022-11-05T13:48:06.161Z,7.03
2022-11-05T13:50:41.863Z,6.98
2022-11-05T13:53:08.661Z,7.11
2022-11-05T13:55:47.801Z,7.02
2022-11-05T13:58:29.430Z,6.98
2022-11-05T14:01:11.397Z,7.10
2022-11-05T14:03:39.015Z,7.01
2022-11-05T14:06:08.899Z,6.99
2022-11-05T14:08:43.026Z,7.10
2022-11-05T14:11:24.281Z,6.96
2022-11-05T14:13:52.990Z,6.92
2022-11-05T14:16:20.852Z,7.04
2022-11-05T14:19:06.832Z,6.96
2022-11-05T14:21:49.396Z,6.91
2022-11-05T14:24:21.995Z,7.06
2022-11-05T14:27:00.585Z,6.96
2022-11-05T14:29:40.810Z,6.92
2022-11-05T14:32:27.575Z,7.05
2022-11-05T14:34:56.710Z,6.93
2022-11-05T14:37:40.415Z,6.94
2022-11-05T14:40:22.779Z,7.07
2022-11-05T14:42:54.571Z,6.95
2022-11-05T14:45:24.190Z,6.94
2022-11-05T14:47:55.634Z,7.04
2022-11-05T14:50:26.054Z,6.92
2022-11-05T14:52:54.245Z,6.98
2022-11-05T14:55:32.674Z,7.00
2022-11-05T14:57:59.480Z,6.90
2022-11-05T15:00:29.117Z,6.96
2022-11-05T15:02:56.931Z,7.04
2022-11-05T15:05:37.093Z,6.92
2022-11-05T15:08:22.505Z,7.02
2022-11-05T15:10:51.577Z,6.97
2022-11-05T15:13:28.834Z,6.90
2022-11-05T15:15:57.190Z,7.04
2022-11-05T15:18:41.113Z,7.02
2022-11-05T15:21:10.863Z,6.94
2022-11-05T15:23:40.179Z,7.06
2022-11-05T15:26:07.070Z,6.97
2022-11-05T15:28:44.968Z,6.97
2022-11-05T15:31:14.699Z,7.11
2022-11-05T15:33:42.108Z,7.01
2022-11-05T15:36:10.675Z,7.00
2022-11-05T15:38:37.670Z,7.13
2022-11-05T15:41:04.418Z,7.01
2022-11-05T15:43:31.309Z,6.99
2022-11-05T15:46:00.953Z,7.11
2022-11-05T15:48:27.745Z,7.03
2022-11-05T15:50:54.531Z,7.00
2022-11-05T15:53:47.395Z,7.13
2022-11-05T15:56:32.690Z,7.05
2022-11-05T15:59:01.568Z,7.04
2022-11-05T16:01:30.431Z,7.16
2022-11-05T16:03:59.846Z,7.05
2022-11-05T16:06:31.030Z,7.10
2022-11-05T16:08:57.848Z,7.16
2022-11-05T16:11:26.474Z,7.05
2022-11-05T16:13:53.967Z,7.10
2022-11-05T16:16:23.483Z,7.17
2022-11-05T16:18:50.277Z,7.05
2022-11-05T16:21:22.933Z,7.10
2022-11-05T16:23:49.453Z,7.20
2022-11-05T16:29:29.606Z,7.16
2022-11-05T16:31:57.485Z,7.16
2022-11-05T16:34:38.223Z,7.09
2022-11-05T16:37:06.487Z,7.21
2022-11-05T16:39:33.569Z,7.13
2022-11-05T16:42:00.310Z,7.08
2022-11-05T16:44:27.253Z,7.21
2022-11-05T16:46:54.310Z,7.14
2022-11-05T16:49:21.254Z,7.13
2022-11-05T16:51:48.131Z,7.26
2022-11-05T16:54:14.979Z,7.13
2022-11-05T16:56:43.957Z,7.16
2022-11-05T16:59:13.654Z,7.26
2022-11-05T17:01:42.052Z,7.14
2022-11-05T17:04:09.699Z,7.18
2022-11-05T17:06:38.058Z,7.24
2022-11-05T17:09:04.995Z,7.12
2022-11-05T17:11:31.822Z,7.18
2022-11-05T17:13:58.721Z,7.25
2022-11-05T17:16:27.043Z,7.17
2022-11-05T17:18:56.077Z,7.23
2022-11-05T17:21:22.782Z,7.25
2022-11-05T17:23:49.667Z,7.13
2022-11-05T17:26:16.425Z,7.24
2022-11-05T17:28:43.075Z,7.20
2022-11-05T17:31:11.687Z,7.14
2022-11-05T17:33:38.454Z,7.27
2022-11-05T17:36:05.814Z,7.19
2022-11-05T17:38:33.103Z,7.13
2022-11-05T17:40:59.898Z,7.26
2022-11-05T17:43:26.637Z,7.20
2022-11-05T17:45:53.444Z,7.16
2022-11-05T17:48:20.678Z,7.31
2022-11-05T17:50:48.436Z,7.19
2022-11-05T17:53:16.657Z,7.16
2022-11-05T17:55:44.218Z,7.30
2022-11-05T17:58:11.165Z,7.23
2022-11-05T18:00:38.417Z,7.18
2022-11-05T18:03:05.662Z,7.32
2022-11-05T18:05:35.157Z,7.24
2022-11-05T18:08:02.452Z,7.21
2022-11-05T18:10:29.319Z,7.33
2022-11-05T18:12:56.115Z,7.26
2022-11-05T18:15:25.116Z,7.26
2022-11-05T18:17:51.882Z,7.35
2022-11-05T18:20:19.789Z,7.25
2022-11-05T18:22:48.775Z,7.25
2022-11-05T18:25:15.632Z,7.40
2022-11-05T18:27:42.895Z,7.26
2022-11-05T18:30:10.427Z,7.28
2022-11-05T18:32:37.491Z,7.39
2022-11-05T18:35:04.479Z,7.27
2022-11-05T18:37:31.441Z,7.25
2022-11-05T18:39:58.187Z,7.39
2022-11-05T18:42:25.651Z,7.30
2022-11-05T18:44:52.483Z,7.27
2022-11-05T18:47:19.239Z,7.39
2022-11-05T18:49:46.406Z,7.26
2022-11-05T18:52:13.581Z,7.27
2022-11-05T18:54:40.318Z,7.39
2022-11-05T18:57:07.359Z,7.26
2022-11-05T18:59:38.237Z,7.28
2022-11-05T19:02:06.421Z,7.42
2022-11-05T19:04:35.013Z,7.37
2022-11-05T19:07:05.142Z,7.35
2022-11-05T19:09:34.075Z,7.47
2022-11-05T19:12:01.367Z,7.43
2022-11-05T19:14:28.414Z,7.39
2022-11-05T19:16:55.154Z,7.53
2022-11-05T19:19:21.881Z,7.42
2022-11-05T19:21:48.642Z,7.36
2022-11-05T19:24:17.099Z,7.49
2022-11-05T19:26:44.286Z,7.40
2022-11-05T19:29:11.129Z,7.38
2022-11-05T19:31:39.827Z,7.51
2022-11-05T19:34:06.684Z,7.47
2022-11-05T19:36:33.750Z,7.44
2022-11-05T19:39:02.032Z,7.55
2022-11-05T19:41:28.786Z,7.50
2022-11-05T19:43:58.671Z,7.46
2022-11-05T19:46:25.434Z,7.57
2022-11-05T19:48:54.066Z,7.50
2022-11-05T19:51:22.384Z,7.44
2022-11-05T19:53:49.635Z,7.60
2022-11-05T19:56:17.759Z,7.52
2022-11-05T19:58:45.062Z,7.46
2022-11-05T20:01:12.752Z,7.59
2022-11-05T20:03:40.132Z,7.53
2022-11-05T20:06:09.229Z,7.51
2022-11-05T20:08:47.867Z,7.63
2022-11-05T20:11:22.914Z,7.50
2022-11-05T20:13:49.713Z,7.51
2022-11-05T20:16:25.864Z,7.63
2022-11-05T20:18:52.750Z,7.53
2022-11-05T20:21:20.307Z,7.59
2022-11-05T20:23:47.180Z,7.65
2022-11-05T20:26:14.499Z,7.54
2022-11-05T20:28:41.474Z,7.61
2022-11-05T20:31:11.462Z,7.70
2022-11-05T20:33:38.663Z,7.58
2022-11-05T20:36:06.737Z,7.63
2022-11-05T20:38:33.513Z,7.73
2022-11-05T20:40:59.973Z,7.58
2022-11-05T20:43:30.491Z,7.65
2022-11-05T20:45:58.154Z,7.67
2022-11-05T20:48:26.554Z,7.58
2022-11-05T20:50:53.029Z,7.72
2022-11-05T20:53:19.511Z,7.62
2022-11-05T20:55:47.304Z,7.58
2022-11-05T20:58:15.269Z,7.72
2022-11-05T21:00:48.056Z,7.66
2022-11-05T21:03:14.614Z,7.62
2022-11-05T21:05:47.082Z,7.77
2022-11-05T21:08:14.430Z,7.60
2022-11-05T21:10:41.173Z,7.67
2022-11-05T21:13:07.883Z,7.70
2022-11-05T21:15:34.485Z,7.55
2022-11-05T21:18:01.458Z,7.73
2022-11-05T21:20:27.933Z,7.64
2022-11-05T21:22:54.365Z,7.57
2022-11-05T21:25:20.834Z,7.71
2022-11-05T21:27:47.327Z,7.59
2022-11-05T21:30:14.053Z,7.65
2022-11-05T21:32:40.679Z,7.66
2022-11-05T21:35:07.349Z,7.51
2022-11-05T21:37:33.812Z,7.65
2022-11-05T21:40:00.337Z,7.57
2022-11-05T21:42:28.619Z,7.51
2022-11-05T21:45:00.366Z,7.65
2022-11-05T21:47:28.029Z,7.54
2022-11-05T21:49:56.971Z,7.48
2022-11-05T21:52:42.043Z,7.59
2022-11-05T21:55:29.446Z,7.44
2022-11-05T21:58:15.021Z,7.43
2022-11-05T22:00:41.742Z,7.42
2022-11-05T22:03:10.049Z,7.28
2022-11-05T22:05:38.101Z,7.38
2022-11-05T22:08:04.804Z,7.33
2022-11-05T22:10:31.258Z,7.24
2022-11-05T22:12:57.685Z,7.32
2022-11-05T22:15:26.015Z,7.35
2022-11-05T22:17:52.474Z,7.23
2022-11-05T22:20:19.008Z,7.32
2022-11-05T22:22:45.590Z,7.23
2022-11-05T22:25:16.641Z,7.11
2022-11-05T22:27:44.136Z,7.26
2022-11-05T22:30:13.002Z,7.16
2022-11-05T22:32:39.686Z,7.10
2022-11-05T22:35:08.645Z,7.23
2022-11-05T22:37:35.098Z,7.10
2022-11-05T22:40:04.065Z,7.08
2022-11-05T22:42:30.612Z,7.18
2022-11-05T22:44:58.273Z,7.01
2022-11-05T22:47:24.713Z,6.97
2022-11-05T22:49:51.171Z,7.12
2022-11-05T22:52:18.004Z,6.98
2022-11-05T22:54:44.486Z,6.97
2022-11-05T22:57:10.921Z,7.09
2022-11-05T22:59:37.400Z,6.93
2022-11-05T23:02:09.156Z,6.86
2022-11-05T23:04:36.450Z,7.01
2022-11-05T23:07:27.281Z,6.87
2022-11-05T23:10:13.125Z,6.81
2022-11-05T23:12:40.032Z,6.97
2022-11-05T23:15:07.834Z,6.86
2022-11-05T23:17:55.542Z,6.83
2022-11-05T23:20:41.390Z,6.92
2022-11-05T23:23:30.190Z,6.78
2022-11-05T23:26:00.030Z,6.81
2022-11-05T23:28:26.654Z,6.84
2022-11-05T23:31:11.834Z,6.69
2022-11-05T23:33:38.311Z,6.79
2022-11-05T23:36:23.208Z,6.81
2022-11-05T23:38:49.698Z,6.71
2022-11-05T23:41:37.046Z,6.79
2022-11-05T23:44:21.865Z,6.84
2022-11-05T23:47:06.809Z,6.67
2022-11-05T23:49:33.357Z,6.73
2022-11-05T23:51:59.853Z,6.64
2022-11-05T23:54:26.313Z,6.47
2022-11-05T23:56:52.778Z,6.53
2022-11-05T23:59:19.227Z,6.58
